createdAt,value
2023-02-05T00:00:35.284Z,38.04
2023-02-05T00:03:04.436Z,37.99
2023-02-05T00:05:33.445Z,37.91
2023-02-05T00:08:04.063Z,38.08
2023-02-05T00:10:32.969Z,38.06
2023-02-05T00:13:01.645Z,37.95
2023-02-05T00:15:31.075Z,37.90
2023-02-05T00:18:00.213Z,37.98
2023-02-05T00:20:29.744Z,37.87
2023-02-05T00:22:58.309Z,37.93
2023-02-05T00:25:29.991Z,37.92
2023-02-05T00:27:58.569Z,37.93
2023-02-05T00:30:28.519Z,37.97
2023-02-05T00:32:57.170Z,38.04
2023-02-05T00:35:25.734Z,38.03
2023-02-05T00:37:54.356Z,38.05
2023-02-05T00:40:22.928Z,37.96
2023-02-05T00:42:52.904Z,37.90
2023-02-05T00:45:21.872Z,37.78
2023-02-05T00:47:50.662Z,37.84
2023-02-05T00:50:19.362Z,37.86
2023-02-05T00:52:48.341Z,37.63
2023-02-05T00:55:17.030Z,37.88
2023-02-05T00:57:45.578Z,37.75
2023-02-05T01:00:16.737Z,37.77
2023-02-05T01:02:45.434Z,37.82
2023-02-05T01:05:20.326Z,37.84
2023-02-05T01:07:48.893Z,37.89
2023-02-05T01:10:17.812Z,37.80
2023-02-05T01:12:46.398Z,37.77
2023-02-05T01:15:16.336Z,37.85
2023-02-05T01:17:44.995Z,37.76
2023-02-05T01:20:14.624Z,37.86
2023-02-05T01:22:43.342Z,37.72
2023-02-05T01:25:12.225Z,37.83
2023-02-05T01:27:41.229Z,37.73
2023-02-05T01:30:12.620Z,37.72
2023-02-05T01:32:42.910Z,37.59
2023-02-05T01:35:11.526Z,37.52
2023-02-05T01:37:40.140Z,37.45
2023-02-05T01:40:09.977Z,37.52
2023-02-05T01:42:38.482Z,37.51
2023-02-05T01:45:50.956Z,37.48
2023-02-05T01:48:24.071Z,37.61
2023-02-05T01:50:55.072Z,37.56
2023-02-05T01:53:26.266Z,37.38
2023-02-05T01:55:57.552Z,37.50
2023-02-05T01:58:27.723Z,37.47
2023-02-05T02:00:56.611Z,37.32
2023-02-05T02:03:28.008Z,37.44
2023-02-05T02:05:57.744Z,37.52
2023-02-05T02:08:26.453Z,37.43
2023-02-05T02:10:55.583Z,37.55
2023-02-05T02:13:24.509Z,37.28
2023-02-05T02:15:53.482Z,37.19
2023-02-05T02:18:28.142Z,37.32
2023-02-05T02:21:54.811Z,37.27
2023-02-05T02:24:57.134Z,37.28
2023-02-05T02:27:42.159Z,37.36
2023-02-05T02:30:15.922Z,37.08
2023-02-05T02:32:48.179Z,37.15
2023-02-05T02:35:21.018Z,37.25
2023-02-05T02:37:59.540Z,37.39
2023-02-05T02:40:32.831Z,37.14
2023-02-05T02:43:06.446Z,37.05
2023-02-05T02:45:36.909Z,37.27
2023-02-05T02:48:06.152Z,37.16
2023-02-05T02:50:37.584Z,37.18
2023-02-05T02:53:10.440Z,37.18
2023-02-05T02:55:43.690Z,36.99
2023-02-05T02:58:17.913Z,37.09
2023-02-05T03:00:47.003Z,37.07
2023-02-05T03:03:17.732Z,36.89
2023-02-05T03:05:46.776Z,37.33
2023-02-05T03:08:20.942Z,36.93
2023-02-05T03:10:54.355Z,37.17
2023-02-05T03:13:24.571Z,37.02
2023-02-05T03:15:53.411Z,37.06
2023-02-05T03:18:22.126Z,36.91
2023-02-05T03:20:55.382Z,36.96
2023-02-05T03:23:24.236Z,36.85
2023-02-05T03:25:53.563Z,36.95
2023-02-05T03:28:26.758Z,36.95
2023-02-05T03:30:59.552Z,36.89
2023-02-05T03:33:41.123Z,37.00
2023-02-05T03:36:19.122Z,37.03
2023-02-05T03:38:59.286Z,36.79
2023-02-05T03:41:54.120Z,36.84
2023-02-05T03:44:36.185Z,36.95
2023-02-05T03:47:07.200Z,37.03
2023-02-05T03:49:43.794Z,36.98
2023-02-05T03:52:14.840Z,36.74
2023-02-05T03:54:47.832Z,36.93
2023-02-05T03:57:19.954Z,36.75
2023-02-05T03:59:50.828Z,36.87
2023-02-05T04:02:20.234Z,36.89
2023-02-05T04:04:48.941Z,36.81
2023-02-05T04:07:17.459Z,36.85
2023-02-05T04:09:46.507Z,36.75
2023-02-05T04:12:15.083Z,36.69
2023-02-05T04:14:43.770Z,36.65
2023-02-05T04:17:14.299Z,36.70
2023-02-05T04:19:42.840Z,36.64
2023-02-05T04:22:11.619Z,36.68
2023-02-05T04:24:40.552Z,36.68
2023-02-05T04:27:09.410Z,36.70
2023-02-05T04:29:38.246Z,36.54
2023-02-05T04:32:07.284Z,36.58
2023-02-05T04:34:37.526Z,36.59
2023-02-05T04:37:06.132Z,36.64
2023-02-05T04:39:35.044Z,36.63
2023-02-05T04:42:03.852Z,36.58
2023-02-05T04:44:32.568Z,36.45
2023-02-05T04:47:01.705Z,36.57
2023-02-05T04:49:30.450Z,36.59
2023-02-05T04:52:00.338Z,36.51
2023-02-05T04:54:29.981Z,36.55
2023-02-05T04:56:58.662Z,36.46
2023-02-05T04:59:30.150Z,36.51
2023-02-05T05:01:59.151Z,36.36
2023-02-05T05:04:28.259Z,36.51
2023-02-05T05:06:57.038Z,36.40
2023-02-05T05:09:27.320Z,36.49
2023-02-05T05:11:56.456Z,36.37
2023-02-05T05:14:25.320Z,36.42
2023-02-05T05:16:54.062Z,36.41
2023-02-05T05:19:22.774Z,36.30
2023-02-05T05:21:52.006Z,36.30
2023-02-05T05:24:20.696Z,36.34
2023-02-05T05:26:50.830Z,36.47
2023-02-05T05:29:20.689Z,36.30
2023-02-05T05:31:49.373Z,36.34
2023-02-05T05:34:18.048Z,36.39
2023-02-05T05:36:47.738Z,36.31
2023-02-05T05:39:33.889Z,36.23
2023-02-05T05:42:21.642Z,36.19
2023-02-05T05:44:52.232Z,36.31
2023-02-05T05:47:21.047Z,36.40
2023-02-05T05:49:49.755Z,36.29
2023-02-05T05:52:18.622Z,36.16
2023-02-05T05:54:47.348Z,36.23
2023-02-05T05:57:17.667Z,36.13
2023-02-05T05:59:46.285Z,36.14
2023-02-05T06:02:15.641Z,36.27
2023-02-05T06:04:44.341Z,36.10
2023-02-05T06:07:13.066Z,36.23
2023-02-05T06:09:42.318Z,36.13
2023-02-05T06:12:11.803Z,36.01
2023-02-05T06:14:42.004Z,36.13
2023-02-05T06:17:10.808Z,36.12
2023-02-05T06:19:39.372Z,36.16
2023-02-05T06:22:08.216Z,36.11
2023-02-05T06:24:36.903Z,36.08
2023-02-05T06:27:05.579Z,35.96
2023-02-05T06:29:34.506Z,36.10
2023-02-05T06:32:06.530Z,36.01
2023-02-05T06:34:35.240Z,35.95
2023-02-05T06:37:04.463Z,35.88
2023-02-05T06:39:33.500Z,35.93
2023-02-05T06:42:02.174Z,35.94
2023-02-05T06:44:30.982Z,35.92
2023-02-05T06:47:00.129Z,35.96
2023-02-05T06:49:30.148Z,36.02
2023-02-05T06:51:59.180Z,35.85
2023-02-05T06:54:27.973Z,35.99
2023-02-05T06:56:56.611Z,35.85
2023-02-05T06:59:25.761Z,35.83
2023-02-05T07:01:54.361Z,35.78
2023-02-05T07:04:23.438Z,35.91
2023-02-05T07:06:55.693Z,35.77
2023-02-05T07:09:24.447Z,36.01
2023-02-05T07:11:54.050Z,35.89
2023-02-05T07:14:22.801Z,35.94
2023-02-05T07:16:51.880Z,35.77
2023-02-05T07:19:20.637Z,36.05
2023-02-05T07:21:49.613Z,36.08
2023-02-05T07:24:19.631Z,35.77
2023-02-05T07:26:48.810Z,35.80
2023-02-05T07:29:17.573Z,35.76
2023-02-05T07:31:46.336Z,35.89
2023-02-05T07:34:15.700Z,35.84
2023-02-05T07:36:44.309Z,36.03
2023-02-05T07:39:13.043Z,35.84
2023-02-05T07:41:43.355Z,36.00
2023-02-05T07:44:12.076Z,35.69
2023-02-05T07:46:40.913Z,35.79
2023-02-05T07:49:11.571Z,35.72
2023-02-05T07:51:40.264Z,35.94
2023-02-05T07:54:09.222Z,35.90
2023-02-05T07:56:38.031Z,35.92
2023-02-05T07:59:08.318Z,35.81
2023-02-05T08:01:37.196Z,35.90
2023-02-05T08:04:06.594Z,35.88
2023-02-05T08:06:35.288Z,35.88
2023-02-05T08:09:04.088Z,35.87
2023-02-05T08:11:33.120Z,35.88
2023-02-05T08:14:02.256Z,36.02
2023-02-05T08:16:32.583Z,35.87
2023-02-05T08:19:01.638Z,35.92
2023-02-05T08:21:30.383Z,35.84
2023-02-05T08:24:01.252Z,35.94
2023-02-05T08:26:30.040Z,35.95
2023-02-05T08:29:00.097Z,35.80
2023-02-05T08:31:28.807Z,36.17
2023-02-05T08:34:00.386Z,35.94
2023-02-05T08:36:29.228Z,35.84
2023-02-05T08:38:57.929Z,36.00
2023-02-05T08:41:26.750Z,35.82
2023-02-05T08:43:55.398Z,35.83
2023-02-05T08:46:31.617Z,36.19
2023-02-05T08:49:07.519Z,35.22
2023-02-05T08:51:37.312Z,35.84
2023-02-05T08:54:09.347Z,35.33
2023-02-05T08:56:38.350Z,35.81
2023-02-05T08:59:07.069Z,35.93
2023-02-05T09:01:37.338Z,36.08
2023-02-05T09:04:07.761Z,36.29
2023-02-05T09:06:37.004Z,36.23
2023-02-05T09:09:05.843Z,36.61
2023-02-05T09:11:34.794Z,36.56
2023-02-05T09:14:04.136Z,36.76
2023-02-05T09:16:32.920Z,36.66
2023-02-05T09:19:02.120Z,36.89
2023-02-05T09:21:32.342Z,36.98
2023-02-05T09:24:01.027Z,36.96
2023-02-05T09:26:30.153Z,36.83
2023-02-05T09:28:59.430Z,37.14
2023-02-05T09:31:28.590Z,36.90
2023-02-05T09:33:57.520Z,36.91
2023-02-05T09:36:26.157Z,37.42
2023-02-05T09:39:11.866Z,36.88
2023-02-05T09:41:47.626Z,37.24
2023-02-05T09:44:19.515Z,37.02
2023-02-05T09:46:53.275Z,37.49
2023-02-05T09:49:27.749Z,37.47
2023-02-05T09:52:01.089Z,37.67
2023-02-05T09:54:33.465Z,38.04
2023-02-05T09:57:06.075Z,37.91
2023-02-05T09:59:35.280Z,38.60
2023-02-05T10:02:14.560Z,38.27
2023-02-05T10:04:43.584Z,37.87
2023-02-05T10:07:29.366Z,37.89
2023-02-05T10:10:27.733Z,37.72
2023-02-05T10:13:29.268Z,37.84
2023-02-05T10:16:41.194Z,37.79
2023-02-05T10:19:47.649Z,37.71
2023-02-05T10:22:20.680Z,37.53
2023-02-05T10:25:34.945Z,37.45
2023-02-05T10:28:10.604Z,37.43
2023-02-05T10:30:44.310Z,37.50
2023-02-05T10:33:17.989Z,37.20
2023-02-05T10:35:51.198Z,37.62
2023-02-05T10:38:23.991Z,37.54
2023-02-05T10:40:59.395Z,38.23
2023-02-05T10:43:30.980Z,37.73
2023-02-05T10:45:59.814Z,38.08
2023-02-05T10:48:42.770Z,38.15
2023-02-05T10:51:14.094Z,37.96
2023-02-05T10:53:42.785Z,37.89
2023-02-05T10:56:17.946Z,37.79
2023-02-05T10:58:49.848Z,38.07
2023-02-05T11:01:20.367Z,37.94
2023-02-05T11:03:55.300Z,37.93
2023-02-05T11:06:25.386Z,38.88
2023-02-05T11:08:54.100Z,37.91
2023-02-05T11:11:28.035Z,37.90
2023-02-05T11:13:58.879Z,38.08
2023-02-05T11:16:37.864Z,37.72
2023-02-05T11:19:06.735Z,37.86
2023-02-05T11:21:52.294Z,38.58
2023-02-05T11:24:28.263Z,38.12
2023-02-05T11:29:50.980Z,38.57
2023-02-05T11:32:21.183Z,38.41
2023-02-05T11:34:49.920Z,38.02
2023-02-05T11:37:19.757Z,38.07
2023-02-05T11:39:48.896Z,38.08
2023-02-05T11:42:21.314Z,37.83
2023-02-05T11:44:53.670Z,37.73
2023-02-05T11:47:27.939Z,38.30
2023-02-05T11:49:56.603Z,38.44
2023-02-05T11:52:28.712Z,37.96
2023-02-05T11:54:57.528Z,37.69
2023-02-05T11:57:35.557Z,38.13
2023-02-05T12:00:22.256Z,38.01
2023-02-05T12:02:54.128Z,38.19
2023-02-05T12:05:25.341Z,37.77
2023-02-05T12:07:56.612Z,37.81
2023-02-05T12:10:30.350Z,37.96
2023-02-05T12:13:07.329Z,38.03
2023-02-05T12:15:43.027Z,38.13
2023-02-05T12:18:20.548Z,37.97
2023-02-05T12:20:52.422Z,38.32
2023-02-05T12:23:35.426Z,38.93
2023-02-05T12:26:21.984Z,38.81
2023-02-05T12:28:58.083Z,38.37
2023-02-05T12:31:37.800Z,38.45
2023-02-05T12:34:17.663Z,38.17
2023-02-05T12:37:10.960Z,38.15
2023-02-05T12:39:44.562Z,38.70
2023-02-05T12:42:26.143Z,39.58
2023-02-05T12:45:36.774Z,39.39
2023-02-05T12:48:32.478Z,41.55
2023-02-05T12:51:11.245Z,39.11
2023-02-05T12:53:58.023Z,38.96
2023-02-05T12:56:41.356Z,40.05
2023-02-05T12:59:15.541Z,39.76
2023-02-05T13:01:48.166Z,40.06
2023-02-05T13:04:24.231Z,39.33
2023-02-05T13:06:56.603Z,39.40
2023-02-05T13:09:30.495Z,39.42
2023-02-05T13:12:05.104Z,40.04
2023-02-05T13:14:39.381Z,40.85
2023-02-05T13:17:13.721Z,41.20
2023-02-05T13:19:46.303Z,40.87
2023-02-05T13:22:36.181Z,40.99
2023-02-05T13:25:40.959Z,40.40
2023-02-05T13:28:42.472Z,40.07
2023-02-05T13:31:16.717Z,39.83
2023-02-05T13:33:45.590Z,39.81
2023-02-05T13:36:56.423Z,39.72
2023-02-05T13:39:59.943Z,40.10
2023-02-05T13:42:44.390Z,39.51
2023-02-05T13:45:28.869Z,39.92
2023-02-05T13:48:12.684Z,39.77
2023-02-05T13:54:20.706Z,40.07
2023-02-05T13:56:50.836Z,39.57
2023-02-05T13:59:23.453Z,39.66
2023-02-05T14:02:07.838Z,39.84
2023-02-05T14:04:39.674Z,39.79
2023-02-05T14:07:10.468Z,39.40
2023-02-05T14:09:43.175Z,39.13
2023-02-05T14:15:25.999Z,38.76
2023-02-05T14:17:56.152Z,39.36
2023-02-05T14:20:34.473Z,39.47
2023-02-05T14:23:03.543Z,39.45
2023-02-05T14:26:11.981Z,39.50
2023-02-05T14:28:51.739Z,39.38
2023-02-05T14:31:49.691Z,39.43
2023-02-05T14:34:49.289Z,39.52
2023-02-05T14:37:37.618Z,39.47
2023-02-05T14:40:24.886Z,39.43
2023-02-05T14:43:08.455Z,39.31
2023-02-05T14:45:44.749Z,39.19
2023-02-05T14:48:21.947Z,39.06
2023-02-05T14:51:05.699Z,39.08
2023-02-05T14:53:34.635Z,38.94
2023-02-05T14:56:03.357Z,38.96
2023-02-05T14:58:36.008Z,38.88
2023-02-05T15:01:44.077Z,38.92
2023-02-05T15:04:40.125Z,38.76
2023-02-05T15:07:12.509Z,38.86
2023-02-05T15:09:45.321Z,38.71
2023-02-05T15:12:53.932Z,38.54
2023-02-05T15:15:33.973Z,38.44
2023-02-05T15:18:21.864Z,38.64
2023-02-05T15:20:50.797Z,38.48
2023-02-05T15:23:36.191Z,38.45
2023-02-05T15:26:06.816Z,38.75
2023-02-05T15:28:38.244Z,38.63
2023-02-05T15:31:28.625Z,38.61
2023-02-05T15:34:03.569Z,38.98
2023-02-05T15:36:36.412Z,39.15
2023-02-05T15:39:20.974Z,39.36
2023-02-05T15:41:49.879Z,39.54
2023-02-05T15:44:24.914Z,38.61
2023-02-05T15:46:54.912Z,36.39
2023-02-05T15:49:41.853Z,38.49
2023-02-05T15:52:18.173Z,38.32
2023-02-05T15:54:46.911Z,38.17
2023-02-05T15:57:20.311Z,38.54
2023-02-05T15:59:49.089Z,38.63
2023-02-05T16:02:20.645Z,39.01
2023-02-05T16:04:55.819Z,39.22
2023-02-05T16:07:26.561Z,38.75
2023-02-05T16:09:57.324Z,38.31
2023-02-05T16:12:26.185Z,39.12
2023-02-05T16:15:02.370Z,39.41
2023-02-05T16:17:37.419Z,39.37
2023-02-05T16:20:26.847Z,39.09
2023-02-05T16:22:57.345Z,38.97
2023-02-05T16:25:36.047Z,39.34
2023-02-05T16:28:07.255Z,39.26
2023-02-05T16:30:40.641Z,39.49
2023-02-05T16:33:19.618Z,39.25
2023-02-05T16:35:49.179Z,38.74
2023-02-05T16:38:19.344Z,38.71
2023-02-05T16:40:49.981Z,39.15
2023-02-05T16:43:30.341Z,38.99
2023-02-05T16:46:26.708Z,39.16
2023-02-05T16:48:58.998Z,39.05
2023-02-05T16:51:32.883Z,38.79
2023-02-05T16:54:01.985Z,38.52
2023-02-05T16:56:32.092Z,38.53
2023-02-05T16:59:01.851Z,38.19
2023-02-05T17:01:33.501Z,38.39
2023-02-05T17:04:04.525Z,38.31
2023-02-05T17:06:35.042Z,38.48
2023-02-05T17:09:05.086Z,38.67
2023-02-05T17:11:37.465Z,38.53
2023-02-05T17:14:22.433Z,38.55
2023-02-05T17:16:56.621Z,38.51
2023-02-05T17:19:28.189Z,38.49
2023-02-05T17:22:20.424Z,38.63
2023-02-05T17:24:50.133Z,37.23
2023-02-05T17:29:48.193Z,38.11
2023-02-05T17:32:18.212Z,40.96
2023-02-05T17:34:48.522Z,44.80
2023-02-05T17:37:17.467Z,45.62
2023-02-05T17:39:46.102Z,44.04
2023-02-05T17:42:21.002Z,41.01
2023-02-05T17:44:49.771Z,40.23
2023-02-05T17:47:18.888Z,40.07
2023-02-05T17:52:17.255Z,39.74
2023-02-05T17:54:46.584Z,38.44
2023-02-05T17:57:18.382Z,39.00
2023-02-05T17:59:47.285Z,38.97
2023-02-05T18:02:15.982Z,39.32
2023-02-05T18:04:44.957Z,39.20
2023-02-05T18:07:21.061Z,38.94
2023-02-05T18:09:52.517Z,39.40
2023-02-05T18:12:21.783Z,39.54
2023-02-05T18:14:50.738Z,39.65
2023-02-05T18:17:19.488Z,39.38
2023-02-05T18:19:48.483Z,39.42
2023-02-05T18:22:18.527Z,39.41
2023-02-05T18:24:47.362Z,39.40
2023-02-05T18:27:16.687Z,39.76
2023-02-05T18:29:45.484Z,39.39
2023-02-05T18:32:14.193Z,39.45
2023-02-05T18:34:43.353Z,39.26
2023-02-05T18:37:14.279Z,39.30
2023-02-05T18:39:44.197Z,39.30
2023-02-05T18:42:12.926Z,39.54
2023-02-05T18:44:41.573Z,39.55
2023-02-05T18:47:11.555Z,39.35
2023-02-05T18:49:40.270Z,39.39
2023-02-05T18:52:10.325Z,39.37
2023-02-05T18:54:39.199Z,39.58
2023-02-05T18:57:09.258Z,39.50
2023-02-05T18:59:38.216Z,39.42
2023-02-05T19:02:07.139Z,39.41
2023-02-05T19:04:36.208Z,39.49
2023-02-05T19:07:05.666Z,39.31
2023-02-05T19:09:34.469Z,39.44
2023-02-05T19:12:03.145Z,39.37
2023-02-05T19:14:33.979Z,39.17
2023-02-05T19:17:02.782Z,39.18
2023-02-05T19:19:31.759Z,39.27
2023-02-05T19:22:02.309Z,39.22
2023-02-05T19:24:30.911Z,38.88
2023-02-05T19:27:00.110Z,39.06
2023-02-05T19:29:28.962Z,39.15
2023-02-05T19:31:59.304Z,39.20
2023-02-05T19:34:29.231Z,38.86
2023-02-05T19:36:57.954Z,39.05
2023-02-05T19:39:27.125Z,39.31
2023-02-05T19:41:56.496Z,39.01
2023-02-05T19:44:27.393Z,39.20
2023-02-05T19:46:56.322Z,39.05
2023-02-05T19:49:26.436Z,39.28
2023-02-05T19:51:56.587Z,39.12
2023-02-05T19:54:25.338Z,39.23
2023-02-05T19:56:54.081Z,39.29
2023-02-05T19:59:22.633Z,39.14
2023-02-05T20:01:51.650Z,39.23
2023-02-05T20:04:22.415Z,39.07
2023-02-05T20:06:55.198Z,38.99
2023-02-05T20:09:23.974Z,39.04
2023-02-05T20:11:54.453Z,38.88
2023-02-05T20:14:23.554Z,38.89
2023-02-05T20:16:52.732Z,38.97
2023-02-05T20:19:21.644Z,39.04
2023-02-05T20:21:52.320Z,39.24
2023-02-05T20:24:20.924Z,38.88
2023-02-05T20:26:49.849Z,38.82
2023-02-05T20:29:35.664Z,38.81
2023-02-05T20:32:05.887Z,38.94
2023-02-05T20:34:36.269Z,38.91
2023-02-05T20:37:09.636Z,38.82
2023-02-05T20:39:41.982Z,38.73
2023-02-05T20:42:13.600Z,38.75
2023-02-05T20:44:42.495Z,38.64
2023-02-05T20:47:14.381Z,38.53
2023-02-05T20:49:43.408Z,38.63
2023-02-05T20:52:13.755Z,38.58
2023-02-05T20:54:42.730Z,38.63
2023-02-05T20:57:11.352Z,38.32
2023-02-05T20:59:40.332Z,38.42
2023-02-05T21:02:10.488Z,38.33
2023-02-05T21:04:39.245Z,38.43
2023-02-05T21:07:07.889Z,38.25
2023-02-05T21:09:41.136Z,38.39
2023-02-05T21:12:09.959Z,38.34
2023-02-05T21:14:39.074Z,38.26
2023-02-05T21:17:09.592Z,38.21
2023-02-05T21:19:39.317Z,38.26
2023-02-05T21:22:08.046Z,38.23
2023-02-05T21:24:36.892Z,38.07
2023-02-05T21:27:07.669Z,38.09
2023-02-05T21:29:36.520Z,37.97
2023-02-05T21:32:05.684Z,37.95
2023-02-05T21:34:34.509Z,38.14
2023-02-05T21:37:03.222Z,37.99
2023-02-05T21:39:32.043Z,38.02
2023-02-05T21:42:01.065Z,37.80
2023-02-05T21:44:31.237Z,37.83
2023-02-05T21:46:59.802Z,37.89
2023-02-05T21:49:28.884Z,37.88
2023-02-05T21:51:57.565Z,37.74
2023-02-05T21:54:26.234Z,37.83
2023-02-05T21:56:55.104Z,37.85
2023-02-05T21:59:23.716Z,38.01
2023-02-05T22:01:53.716Z,37.88
2023-02-05T22:04:22.560Z,37.77
2023-02-05T22:06:51.649Z,37.75
2023-02-05T22:09:20.928Z,37.91
2023-02-05T22:11:50.650Z,37.91
2023-02-05T22:14:19.338Z,37.86
2023-02-05T22:16:47.970Z,37.78
2023-02-05T22:19:18.087Z,37.64
2023-02-05T22:21:46.739Z,37.77
2023-02-05T22:24:16.891Z,37.57
2023-02-05T22:26:46.223Z,37.67
2023-02-05T22:29:15.867Z,37.70
2023-02-05T22:31:45.477Z,37.68
2023-02-05T22:34:14.458Z,37.49
2023-02-05T22:36:44.580Z,37.49
2023-02-05T22:39:13.146Z,37.46
2023-02-05T22:41:43.055Z,37.47
2023-02-05T22:44:12.382Z,37.48
2023-02-05T22:46:42.597Z,37.49
2023-02-05T22:49:12.561Z,37.45
2023-02-05T22:51:43.016Z,37.32
2023-02-05T22:54:13.317Z,37.19
2023-02-05T22:56:41.934Z,37.38
2023-02-05T22:59:10.782Z,37.38
2023-02-05T23:01:39.560Z,37.25
2023-02-05T23:04:09.995Z,37.19
2023-02-05T23:06:39.895Z,37.11
2023-02-05T23:09:11.408Z,37.16
2023-02-05T23:11:40.054Z,37.12
2023-02-05T23:14:09.526Z,37.13
2023-02-05T23:16:40.445Z,37.24
2023-02-05T23:19:10.905Z,37.09
2023-02-05T23:21:39.834Z,37.01
2023-02-05T23:24:10.066Z,37.08
2023-02-05T23:26:42.176Z,37.21
2023-02-05T23:29:11.030Z,37.03
2023-02-05T23:31:42.708Z,37.17
2023-02-05T23:34:11.398Z,36.96
2023-02-05T23:36:40.035Z,36.86
2023-02-05T23:39:10.111Z,36.95
2023-02-05T23:41:40.223Z,36.88
2023-02-05T23:44:12.240Z,36.77
2023-02-05T23:46:41.025Z,36.79
2023-02-05T23:49:09.927Z,36.70
2023-02-05T23:51:38.930Z,36.88
2023-02-05T23:54:09.333Z,36.64
2023-02-05T23:56:38.492Z,36.79
2023-02-05T23:59:07.139Z,36.71
